Time;durP1;ratioP1;P1;durP2;ratioP2;P2;SDS_P1;SDS_P2;PMS_P1;PMS_P2;Temp;Humidity;BMP_temperature;BMP_pressure;BME280_temperature;BME280_humidity;BME280_pressure;Samples;Min_cycle;Max_cycle;Signal;HPM_P1;HPM_P2
2020/12/09 00:00:14;;;;;;;2.70;2.50;;;7.00;99.90;;;;;;5036704;28;20167;-60
2020/12/09 00:02:40;;;;;;;3.07;2.77;;;7.00;99.90;;;;;;5037988;28;20180;-57
2020/12/09 00:05:09;;;;;;;3.30;2.77;;;6.90;99.90;;;;;;5037571;28;20306;-58
2020/12/09 00:07:35;;;;;;;3.40;3.10;;;6.90;99.90;;;;;;5038748;28;20192;-58
2020/12/09 00:10:02;;;;;;;5.37;3.00;;;6.80;99.90;;;;;;5037306;28;20167;-57
2020/12/09 00:12:31;;;;;;;3.80;3.33;;;6.80;99.90;;;;;;5037190;28;20199;-55
2020/12/09 00:14:57;;;;;;;4.77;3.33;;;6.70;99.90;;;;;;5039582;28;20282;-58
2020/12/09 00:17:23;;;;;;;4.03;3.63;;;6.60;99.90;;;;;;5052271;28;20210;-58
2020/12/09 00:19:49;;;;;;;4.10;3.63;;;6.50;99.90;;;;;;5055269;28;20199;-59
2020/12/09 00:22:14;;;;;;;3.97;3.57;;;6.50;99.90;;;;;;5040647;28;20202;-60
2020/12/09 00:24:40;;;;;;;7.83;4.10;;;6.30;99.90;;;;;;5035544;28;20505;-58
2020/12/09 00:27:05;;;;;;;4.97;4.17;;;6.30;99.90;;;;;;5035464;28;20250;-58
2020/12/09 00:29:31;;;;;;;4.67;4.00;;;6.10;99.90;;;;;;5039536;28;20180;-53
2020/12/09 00:31:57;;;;;;;4.20;3.80;;;5.90;99.90;;;;;;5041527;28;20176;-57
2020/12/09 00:34:23;;;;;;;4.97;4.43;;;5.90;99.90;;;;;;5055882;28;20183;-58
2020/12/09 00:36:48;;;;;;;4.80;4.30;;;5.80;99.90;;;;;;5051182;28;20204;-61
2020/12/09 00:39:14;;;;;;;4.50;4.10;;;5.80;99.90;;;;;;5049982;28;20203;-58
2020/12/09 00:41:39;;;;;;;5.10;4.60;;;5.80;99.90;;;;;;5042079;28;20183;-54
2020/12/09 00:44:05;;;;;;;6.37;5.53;;;5.80;99.90;;;;;;5039737;28;20183;-56
2020/12/09 00:46:30;;;;;;;5.87;5.20;;;5.80;99.90;;;;;;5054408;28;20685;-56
2020/12/09 00:48:56;;;;;;;5.23;4.73;;;5.90;99.90;;;;;;5055409;28;20639;-58
2020/12/09 00:51:24;;;;;;;5.60;4.83;;;5.90;99.90;;;;;;5048711;28;20260;-60
2020/12/09 00:53:49;;;;;;;5.70;5.10;;;5.90;99.90;;;;;;5045205;28;20542;-59
2020/12/09 00:56:15;;;;;;;5.97;5.03;;;5.90;99.90;;;;;;5055775;28;20678;-53
2020/12/09 00:58:41;;;;;;;5.87;5.27;;;6.00;99.90;;;;;;5052722;28;20670;-56
2020/12/09 01:01:09;;;;;;;5.13;4.60;;;6.00;99.90;;;;;;5041347;28;20201;-55
2020/12/09 01:03:35;;;;;;;5.63;5.00;;;6.00;99.90;;;;;;5053140;28;20187;-60
2020/12/09 01:06:03;;;;;;;6.07;5.47;;;6.00;99.90;;;;;;5046396;28;20258;-58
2020/12/09 01:08:28;;;;;;;6.30;5.47;;;6.00;99.90;;;;;;5037224;28;20290;-60
2020/12/09 01:10:55;;;;;;;5.70;5.10;;;6.10;99.90;;;;;;5056308;28;20660;-53
2020/12/09 01:13:21;;;;;;;6.70;6.00;;;6.00;99.90;;;;;;5046292;28;20206;-55
2020/12/09 01:15:46;;;;;;;6.47;5.83;;;6.00;99.90;;;;;;5048024;28;20274;-58
2020/12/09 01:18:12;;;;;;;5.60;5.00;;;6.00;99.90;;;;;;5038417;28;20571;-56
2020/12/09 01:20:37;;;;;;;6.27;5.40;;;6.00;99.90;;;;;;5037522;28;20191;-60
2020/12/09 01:23:03;;;;;;;6.13;5.53;;;6.00;99.90;;;;;;5037052;28;20180;-58
2020/12/09 01:25:29;;;;;;;6.00;4.77;;;5.90;99.90;;;;;;5036303;28;20194;-58
2020/12/09 01:27:59;;;;;;;6.43;5.70;;;5.90;99.90;;;;;;5035350;28;20195;-60
2020/12/09 01:30:24;;;;;;;6.50;5.67;;;5.90;99.90;;;;;;5053016;28;20610;-57
2020/12/09 01:32:50;;;;;;;6.30;5.70;;;5.80;99.90;;;;;;5050577;28;20184;-55
2020/12/09 01:35:15;;;;;;;7.23;6.53;;;5.70;99.90;;;;;;5037069;28;20567;-57
2020/12/09 01:37:41;;;;;;;6.67;5.97;;;5.70;99.90;;;;;;5036399;28;20617;-56
2020/12/09 01:40:07;;;;;;;7.20;6.40;;;5.70;99.90;;;;;;5039151;28;20293;-59
2020/12/09 01:42:32;;;;;;;6.40;5.73;;;5.60;99.90;;;;;;5043035;28;20270;-59
2020/12/09 01:44:58;;;;;;;7.27;6.57;;;5.60;99.90;;;;;;5035282;28;20592;-57
2020/12/09 01:47:24;;;;;;;6.30;5.50;;;5.60;99.90;;;;;;5036108;28;20580;-57
2020/12/09 01:49:49;;;;;;;7.10;6.40;;;5.60;99.90;;;;;;5045227;28;20210;-54
2020/12/09 01:52:16;;;;;;;7.77;6.70;;;5.60;99.90;;;;;;5055088;28;20182;-60
2020/12/09 01:54:42;;;;;;;6.87;6.17;;;5.70;99.90;;;;;;5053904;28;20240;-57
2020/12/09 01:57:12;;;;;;;7.00;6.30;;;5.60;99.90;;;;;;5049685;28;20294;-56
2020/12/09 01:59:39;;;;;;;7.10;6.40;;;5.60;99.90;;;;;;5038804;28;20207;-54
2020/12/09 02:02:06;;;;;;;8.10;7.20;;;5.70;99.90;;;;;;5048393;28;20508;-53
2020/12/09 02:04:32;;;;;;;7.73;6.90;;;5.60;99.90;;;;;;5053188;28;20213;-55
2020/12/09 02:06:57;;;;;;;7.20;6.47;;;5.60;99.90;;;;;;5052991;28;20566;-58
2020/12/09 02:09:24;;;;;;;7.43;6.60;;;5.60;99.90;;;;;;5043930;28;20656;-60
2020/12/09 02:11:50;;;;;;;7.77;6.97;;;5.70;99.90;;;;;;5034101;28;20199;-61
2020/12/09 02:14:16;;;;;;;7.87;7.07;;;5.70;99.90;;;;;;5038927;28;20210;-59
2020/12/09 02:16:42;;;;;;;7.40;6.60;;;5.70;99.90;;;;;;5036387;28;20555;-55
2020/12/09 02:19:08;;;;;;;7.80;7.00;;;5.70;99.90;;;;;;5054445;28;20234;-57
2020/12/09 02:21:36;;;;;;;8.00;6.90;;;5.70;99.90;;;;;;5053978;28;20175;-56
2020/12/09 02:24:03;;;;;;;8.03;7.20;;;5.60;99.90;;;;;;5039469;28;20659;-61
2020/12/09 02:26:29;;;;;;;8.17;7.37;;;5.60;99.90;;;;;;5035807;28;20548;-57
2020/12/09 02:28:55;;;;;;;8.50;7.60;;;5.50;99.90;;;;;;5034854;28;20682;-57
2020/12/09 02:31:21;;;;;;;8.73;7.40;;;5.50;99.90;;;;;;5036701;28;20207;-53
2020/12/09 02:33:47;;;;;;;8.87;7.97;;;5.50;99.90;;;;;;5036628;28;20222;-53
2020/12/09 02:36:13;;;;;;;8.73;7.83;;;5.50;99.90;;;;;;5033845;28;20528;-54
2020/12/09 02:38:38;;;;;;;7.87;7.07;;;5.50;99.90;;;;;;5044884;28;20242;-54
2020/12/09 02:41:04;;;;;;;9.40;8.40;;;5.50;99.90;;;;;;5052519;28;20179;-56
2020/12/09 02:43:29;;;;;;;9.00;8.07;;;5.50;99.90;;;;;;5049088;28;20202;-58
2020/12/09 02:45:56;;;;;;;9.90;8.90;;;5.50;99.90;;;;;;5048250;28;20597;-61
2020/12/09 02:48:21;;;;;;;10.17;9.17;;;5.50;99.90;;;;;;5054726;28;20710;-53
2020/12/09 02:50:47;;;;;;;9.43;8.37;;;5.50;99.90;;;;;;5039711;28;20262;-53
2020/12/09 02:53:12;;;;;;;10.73;9.63;;;5.50;99.90;;;;;;5053313;28;20222;-56
2020/12/09 02:55:38;;;;;;;11.27;9.67;;;5.40;99.90;;;;;;5040253;28;20187;-60
2020/12/09 02:58:03;;;;;;;11.67;10.00;;;5.50;99.90;;;;;;5042656;28;20203;-58
2020/12/09 03:00:29;;;;;;;14.23;10.10;;;5.40;99.90;;;;;;5056157;28;20171;-54
2020/12/09 03:02:54;;;;;;;10.80;9.70;;;5.50;99.90;;;;;;5058319;28;20179;-57
2020/12/09 03:05:20;;;;;;;11.67;10.03;;;5.50;99.90;;;;;;5053216;28;20197;-55
2020/12/09 03:07:45;;;;;;;11.13;9.27;;;5.50;99.90;;;;;;5057870;28;20190;-53
2020/12/09 03:10:11;;;;;;;13.00;10.50;;;5.40;99.90;;;;;;5043063;28;20180;-56
2020/12/09 03:12:36;;;;;;;11.70;9.70;;;5.30;99.90;;;;;;5051099;28;20187;-60
2020/12/09 03:15:02;;;;;;;11.00;9.77;;;5.30;99.90;;;;;;5056744;28;20542;-61
2020/12/09 03:17:28;;;;;;;11.40;10.17;;;5.40;99.90;;;;;;5057512;28;20221;-57
2020/12/09 03:19:55;;;;;;;10.07;8.93;;;5.40;99.90;;;;;;5042382;28;20559;-57
2020/12/09 03:22:21;;;;;;;12.60;9.53;;;5.50;99.90;;;;;;5040071;28;20171;-57
2020/12/09 03:24:46;;;;;;;11.57;10.07;;;5.50;99.90;;;;;;5044364;28;20187;-59
2020/12/09 03:27:12;;;;;;;11.00;9.27;;;5.40;99.90;;;;;;5040142;28;20195;-59
2020/12/09 03:29:37;;;;;;;12.07;10.07;;;5.40;99.90;;;;;;5051100;28;20189;-60
2020/12/09 03:32:03;;;;;;;10.80;9.70;;;5.50;99.90;;;;;;5057093;28;20182;-59
2020/12/09 03:34:28;;;;;;;12.33;8.90;;;5.50;99.90;;;;;;5044758;28;20265;-60
2020/12/09 03:36:54;;;;;;;11.30;9.33;;;5.50;99.90;;;;;;5057778;28;20595;-53
2020/12/09 03:39:19;;;;;;;11.40;9.10;;;5.40;99.90;;;;;;5041168;28;20199;-54
2020/12/09 03:41:45;;;;;;;11.30;10.03;;;5.40;99.90;;;;;;5051844;28;20183;-52
2020/12/09 03:44:10;;;;;;;11.47;9.87;;;5.40;99.90;;;;;;5048201;28;20650;-54
2020/12/09 03:46:36;;;;;;;42.57;30.40;;;5.30;99.90;;;;;;5037350;28;20200;-57
2020/12/09 03:49:02;;;;;;;11.80;10.10;;;5.20;99.90;;;;;;5053098;28;20218;-59
2020/12/09 03:51:28;;;;;;;73.00;36.93;;;5.20;99.90;;;;;;5058180;28;20175;-56
2020/12/09 03:53:53;;;;;;;61.40;32.70;;;5.00;99.90;;;;;;5044971;28;20203;-53
2020/12/09 03:56:19;;;;;;;130.83;59.67;;;4.90;99.90;;;;;;5057531;28;20179;-56
2020/12/09 03:58:44;;;;;;;166.37;88.50;;;4.80;99.90;;;;;;5055871;28;20211;-54
2020/12/09 04:01:10;;;;;;;284.03;115.17;;;4.70;99.90;;;;;;5053910;28;20272;-56
2020/12/09 04:03:35;;;;;;;127.57;53.30;;;4.70;99.90;;;;;;5050992;28;20171;-54
2020/12/09 04:06:01;;;;;;;267.10;103.43;;;4.70;99.90;;;;;;5041224;28;20635;-55
2020/12/09 04:08:27;;;;;;;199.20;76.97;;;4.70;99.90;;;;;;5059079;28;20277;-52
2020/12/09 04:10:52;;;;;;;140.77;59.83;;;4.70;99.90;;;;;;5058715;28;20191;-60
2020/12/09 04:13:18;;;;;;;165.00;61.43;;;4.80;99.90;;;;;;5037441;28;20191;-56
2020/12/09 04:15:44;;;;;;;44.10;22.57;;;4.80;99.90;;;;;;5037392;28;20184;-54
2020/12/09 04:18:09;;;;;;;46.60;24.17;;;4.90;99.90;;;;;;5041273;28;20690;-56
2020/12/09 04:20:35;;;;;;;29.67;17.50;;;4.90;99.90;;;;;;5057350;28;20760;-55
2020/12/09 04:23:00;;;;;;;33.63;21.43;;;4.90;99.90;;;;;;5054461;28;20175;-57
2020/12/09 04:25:26;;;;;;;29.97;19.73;;;4.80;99.90;;;;;;5052034;28;20183;-58
2020/12/09 04:27:51;;;;;;;45.50;27.37;;;4.60;99.90;;;;;;5054439;28;20197;-59
2020/12/09 04:30:17;;;;;;;25.33;18.53;;;4.50;99.90;;;;;;5038345;28;20216;-56
2020/12/09 04:32:42;;;;;;;38.17;28.90;;;4.50;99.90;;;;;;5037440;28;20222;-53
2020/12/09 04:35:08;;;;;;;21.57;16.00;;;4.50;99.90;;;;;;5045622;28;20669;-54
2020/12/09 04:37:34;;;;;;;16.23;12.17;;;4.50;99.90;;;;;;5040317;28;20203;-60
2020/12/09 04:40:00;;;;;;;15.83;12.97;;;4.50;99.90;;;;;;5038804;28;20210;-54
2020/12/09 04:42:26;;;;;;;18.07;14.80;;;4.40;99.90;;;;;;5057455;28;20179;-60
2020/12/09 04:44:52;;;;;;;46.13;27.87;;;4.40;99.90;;;;;;5053250;28;20270;-58
2020/12/09 04:47:27;;;;;;;29.83;20.67;;;4.30;99.90;;;;;;5042389;28;20207;-55
2020/12/09 04:50:01;;;;;;;17.40;13.87;;;4.40;99.90;;;;;;5036090;28;20170;-55
2020/12/09 04:52:44;;;;;;;15.03;12.30;;;4.30;99.90;;;;;;5050225;28;20197;-60
2020/12/09 04:55:11;;;;;;;15.10;12.27;;;4.30;99.90;;;;;;5056499;28;20676;-54
2020/12/09 04:57:37;;;;;;;15.93;12.87;;;4.20;99.90;;;;;;5044206;28;20207;-56
2020/12/09 05:00:07;;;;;;;16.47;13.30;;;4.20;99.90;;;;;;5048747;28;20227;-55
2020/12/09 05:02:48;;;;;;;14.17;12.37;;;4.30;99.90;;;;;;5064502;28;20202;-52
2020/12/09 05:05:18;;;;;;;14.60;11.43;;;4.40;99.90;;;;;;5056921;28;20643;-53
2020/12/09 05:07:52;;;;;;;14.67;11.43;;;4.60;99.90;;;;;;5057887;28;20207;-56
2020/12/09 05:10:23;;;;;;;14.67;11.87;;;4.70;99.90;;;;;;5054148;28;20226;-57
2020/12/09 05:12:50;;;;;;;14.37;11.97;;;4.80;99.90;;;;;;5057942;28;20175;-58
2020/12/09 05:15:21;;;;;;;16.57;13.60;;;4.70;99.90;;;;;;5065426;28;20308;-54
2020/12/09 05:18:09;;;;;;;21.93;13.70;;;4.80;99.90;;;;;;5058848;28;20562;-58
2020/12/09 05:20:40;;;;;;;17.37;14.33;;;4.60;99.90;;;;;;5068402;28;20181;-57
2020/12/09 05:23:07;;;;;;;17.07;13.20;;;4.50;99.90;;;;;;5035695;28;20182;-57
2020/12/09 05:25:37;;;;;;;14.67;12.23;;;4.60;99.90;;;;;;5071204;28;20636;-57
2020/12/09 05:28:04;;;;;;;14.80;12.17;;;4.70;99.90;;;;;;5060282;28;20199;-54
2020/12/09 05:30:45;;;;;;;15.20;12.37;;;4.80;99.90;;;;;;5067009;28;20253;-57
2020/12/09 05:33:15;;;;;;;16.03;11.87;;;5.00;99.90;;;;;;5037009;28;20340;-52
2020/12/09 05:35:41;;;;;;;13.10;10.97;;;5.10;99.90;;;;;;5043710;28;20172;-53
2020/12/09 05:38:10;;;;;;;14.70;11.67;;;5.10;99.90;;;;;;5052665;28;20213;-60
2020/12/09 05:40:36;;;;;;;13.43;11.23;;;5.20;99.90;;;;;;5048609;28;20184;-57
2020/12/09 05:43:02;;;;;;;15.37;12.33;;;5.30;99.90;;;;;;5046292;28;20642;-59
2020/12/09 05:45:28;;;;;;;14.73;11.87;;;5.40;99.90;;;;;;5050426;28;20180;-58
2020/12/09 05:48:14;;;;;;;15.27;12.23;;;5.50;99.90;;;;;;5035939;28;20257;-59
2020/12/09 05:50:49;;;;;;;15.60;11.90;;;5.40;99.90;;;;;;5035354;28;20222;-58
2020/12/09 05:53:19;;;;;;;15.93;11.77;;;5.30;99.90;;;;;;5037759;28;20175;-57
2020/12/09 05:55:45;;;;;;;14.87;12.57;;;5.30;99.90;;;;;;5037691;28;20179;-57
2020/12/09 05:58:20;;;;;;;15.50;12.30;;;5.20;99.90;;;;;;5054451;28;20289;-55
2020/12/09 06:01:08;;;;;;;13.37;11.30;;;5.30;99.90;;;;;;5047116;28;20182;-53
2020/12/09 06:03:35;;;;;;;16.77;11.33;;;5.30;99.90;;;;;;5054087;28;20203;-56
2020/12/09 06:06:15;;;;;;;15.17;11.93;;;5.40;99.90;;;;;;5037155;28;20180;-55
2020/12/09 06:08:49;;;;;;;17.73;13.23;;;5.50;99.90;;;;;;5049312;28;20639;-54
2020/12/09 06:11:23;;;;;;;15.43;12.13;;;5.40;99.90;;;;;;5055913;28;20217;-56
2020/12/09 06:13:49;;;;;;;15.20;12.53;;;5.20;99.90;;;;;;5043130;28;20253;-60
2020/12/09 06:16:19;;;;;;;16.40;12.97;;;5.20;99.90;;;;;;5037706;28;20198;-55
2020/12/09 06:18:49;;;;;;;16.33;12.97;;;5.20;99.90;;;;;;5043379;28;20562;-57
2020/12/09 06:21:15;;;;;;;15.27;12.20;;;5.20;99.90;;;;;;5043427;28;20171;-59
2020/12/09 06:23:42;;;;;;;20.33;16.83;;;5.30;99.90;;;;;;5053614;28;20179;-59
2020/12/09 06:26:07;;;;;;;17.73;13.73;;;5.30;99.90;;;;;;5039472;28;20266;-56
2020/12/09 06:28:35;;;;;;;18.10;14.77;;;5.30;99.90;;;;;;5044179;28;20237;-56
2020/12/09 06:31:11;;;;;;;18.60;15.13;;;5.20;99.90;;;;;;5048566;28;20244;-60
2020/12/09 06:33:42;;;;;;;20.23;16.07;;;5.10;99.90;;;;;;5045839;28;20221;-58
2020/12/09 06:36:16;;;;;;;25.13;20.30;;;5.00;99.90;;;;;;5041244;28;20192;-54
2020/12/09 06:39:05;;;;;;;17.33;14.23;;;5.00;99.90;;;;;;5049898;28;20689;-60
2020/12/09 06:41:40;;;;;;;19.30;16.30;;;4.90;99.90;;;;;;5047706;28;20546;-55
2020/12/09 06:44:10;;;;;;;20.17;14.87;;;4.80;99.90;;;;;;5035737;28;20266;-60
2020/12/09 06:46:40;;;;;;;17.90;14.90;;;4.70;99.90;;;;;;5042099;28;20295;-58
2020/12/09 06:49:28;;;;;;;23.00;17.67;;;4.60;99.90;;;;;;5054385;28;20225;-56
2020/12/09 06:51:59;;;;;;;17.90;15.03;;;4.70;99.90;;;;;;5042181;28;20219;-59
2020/12/09 06:54:44;;;;;;;19.90;15.93;;;4.70;99.90;;;;;;5041411;28;20190;-59
2020/12/09 06:57:33;;;;;;;19.47;15.47;;;4.70;99.90;;;;;;5018402;28;20224;-61
2020/12/09 07:00:20;;;;;;;17.13;14.13;;;4.80;99.90;;;;;;5055188;28;20667;-55
2020/12/09 07:02:47;;;;;;;18.70;14.10;;;5.00;99.90;;;;;;5048090;28;20698;-61
2020/12/09 07:05:17;;;;;;;20.43;16.33;;;5.00;99.90;;;;;;5059715;28;20238;-61
2020/12/09 07:07:51;;;;;;;18.07;15.07;;;5.00;99.90;;;;;;5053267;28;20207;-57
2020/12/09 07:10:19;;;;;;;17.47;13.80;;;5.00;99.90;;;;;;5056947;28;20233;-59
2020/12/09 07:12:46;;;;;;;17.47;13.90;;;5.10;99.90;;;;;;5054148;28;20654;-61
2020/12/09 07:15:12;;;;;;;19.53;14.20;;;5.20;99.90;;;;;;5056154;28;20179;-60
2020/12/09 07:17:38;;;;;;;18.23;14.17;;;5.10;99.90;;;;;;5053178;28;20253;-60
2020/12/09 07:20:05;;;;;;;17.93;14.60;;;5.10;99.90;;;;;;5055528;28;20237;-57
2020/12/09 07:22:30;;;;;;;16.97;13.57;;;5.20;99.90;;;;;;5053634;28;20185;-58
2020/12/09 07:24:56;;;;;;;19.50;14.63;;;5.20;99.90;;;;;;5053239;28;20254;-61
2020/12/09 07:27:27;;;;;;;18.53;14.53;;;5.20;99.90;;;;;;5053438;28;20217;-55
2020/12/09 07:30:01;;;;;;;16.53;12.97;;;5.30;99.90;;;;;;5053057;28;20209;-56
2020/12/09 07:32:27;;;;;;;19.10;13.43;;;5.30;99.90;;;;;;5054441;28;20262;-61
2020/12/09 07:34:56;;;;;;;18.30;13.87;;;5.30;99.90;;;;;;5054548;28;20219;-62
2020/12/09 07:37:25;;;;;;;18.80;14.20;;;5.40;99.90;;;;;;5057485;28;20197;-60
2020/12/09 07:39:52;;;;;;;20.03;14.03;;;5.30;99.90;;;;;;5056506;28;20207;-54
2020/12/09 07:42:20;;;;;;;16.73;13.43;;;5.30;99.90;;;;;;5057192;28;20171;-60
2020/12/09 07:44:46;;;;;;;19.40;14.50;;;5.20;99.90;;;;;;5056656;28;20171;-59
2020/12/09 07:47:12;;;;;;;17.50;14.07;;;5.20;99.90;;;;;;5057643;28;20268;-60
2020/12/09 07:49:49;;;;;;;21.53;15.77;;;5.30;99.90;;;;;;5056951;28;20179;-59
2020/12/09 07:52:20;;;;;;;20.17;15.43;;;5.20;99.90;;;;;;5057949;28;20187;-60
2020/12/09 07:54:46;;;;;;;19.47;14.47;;;5.10;99.90;;;;;;5057074;28;20178;-56
2020/12/09 07:57:11;;;;;;;20.43;15.73;;;5.20;99.90;;;;;;5056070;28;20198;-60
2020/12/09 07:59:37;;;;;;;43.87;27.70;;;5.10;99.90;;;;;;5057230;28;20252;-57
2020/12/09 08:02:24;;;;;;;21.93;17.00;;;5.10;99.90;;;;;;5057606;28;20631;-53
2020/12/09 08:05:11;;;;;;;22.30;17.97;;;5.20;99.90;;;;;;5038774;28;20240;-61
2020/12/09 08:07:57;;;;;;;21.80;15.93;;;5.10;99.90;;;;;;5057130;28;20516;-61
2020/12/09 08:10:27;;;;;;;21.60;15.80;;;5.00;99.90;;;;;;5055993;28;20189;-57
2020/12/09 08:13:07;;;;;;;22.27;16.67;;;5.00;99.90;;;;;;5056964;28;20249;-53
2020/12/09 08:15:35;;;;;;;23.40;17.90;;;4.90;99.90;;;;;;5056369;28;20538;-57
2020/12/09 08:18:02;;;;;;;69.93;35.50;;;4.80;99.90;;;;;;5055478;28;20210;-60
2020/12/09 08:20:27;;;;;;;23.43;18.53;;;4.80;99.90;;;;;;5057212;28;20229;-60
2020/12/09 08:23:01;;;;;;;42.47;24.27;;;4.80;99.90;;;;;;5055658;28;20585;-57
2020/12/09 08:25:31;;;;;;;23.40;17.77;;;4.80;99.90;;;;;;5057014;28;20194;-57
2020/12/09 08:28:05;;;;;;;23.77;18.43;;;4.60;99.90;;;;;;5058096;28;20203;-55
2020/12/09 08:30:31;;;;;;;21.50;16.47;;;4.60;99.90;;;;;;5056149;28;20199;-56
2020/12/09 08:33:05;;;;;;;25.40;17.70;;;4.60;99.90;;;;;;5055507;28;20584;-58
2020/12/09 08:35:45;;;;;;;23.93;15.93;;;4.40;99.90;;;;;;5056682;28;20194;-57
2020/12/09 08:38:37;;;;;;;22.37;16.60;;;4.50;99.90;;;;;;5056163;28;20195;-61
2020/12/09 08:41:08;;;;;;;26.50;16.93;;;4.60;99.90;;;;;;5055920;28;20258;-54
2020/12/09 08:43:35;;;;;;;30.27;18.90;;;4.70;99.90;;;;;;5055567;28;20216;-57
2020/12/09 08:46:03;;;;;;;22.97;16.50;;;4.70;99.90;;;;;;5055157;28;20179;-57
2020/12/09 08:48:28;;;;;;;21.80;16.20;;;4.80;99.90;;;;;;5057044;28;20222;-57
2020/12/09 08:50:54;;;;;;;23.77;16.03;;;4.90;99.90;;;;;;5055472;28;20563;-55
2020/12/09 08:53:20;;;;;;;33.33;21.40;;;5.00;99.90;;;;;;5056400;28;20183;-57
2020/12/09 08:55:49;;;;;;;21.53;16.30;;;5.00;99.90;;;;;;5055197;28;20190;-55
2020/12/09 08:58:16;;;;;;;22.07;16.47;;;4.90;99.90;;;;;;5055233;28;20195;-59
2020/12/09 09:00:42;;;;;;;20.60;16.70;;;5.00;99.90;;;;;;5055755;28;20688;-57
2020/12/09 09:03:16;;;;;;;24.40;18.27;;;5.10;99.90;;;;;;5056378;28;20183;-59
2020/12/09 09:05:42;;;;;;;21.90;15.83;;;4.90;99.90;;;;;;5056587;28;20175;-53
2020/12/09 09:08:11;;;;;;;20.20;15.77;;;4.90;99.90;;;;;;5054710;28;20179;-59
2020/12/09 09:10:37;;;;;;;21.00;15.83;;;5.10;99.90;;;;;;5055982;28;20179;-61
2020/12/09 09:13:04;;;;;;;21.93;17.27;;;5.10;99.90;;;;;;5054775;28;20274;-61
2020/12/09 09:15:29;;;;;;;21.93;15.97;;;5.20;99.90;;;;;;5055138;28;20199;-59
2020/12/09 09:17:55;;;;;;;21.03;15.43;;;5.30;99.90;;;;;;5055109;28;20241;-57
2020/12/09 09:20:21;;;;;;;25.33;16.77;;;5.40;99.90;;;;;;5055443;28;20214;-54
2020/12/09 09:22:46;;;;;;;22.33;16.83;;;5.30;99.90;;;;;;5055222;28;20226;-59
2020/12/09 09:25:12;;;;;;;19.53;15.30;;;5.20;99.90;;;;;;5055662;28;20257;-55
2020/12/09 09:27:38;;;;;;;19.60;15.53;;;5.20;99.90;;;;;;5055159;28;20199;-60
2020/12/09 09:30:06;;;;;;;19.67;15.60;;;5.10;99.90;;;;;;5056014;28;20178;-60
2020/12/09 09:32:31;;;;;;;23.13;17.57;;;4.90;99.90;;;;;;5056032;28;20187;-54
2020/12/09 09:34:57;;;;;;;20.47;16.73;;;4.80;99.90;;;;;;5055478;28;20186;-56
2020/12/09 09:37:22;;;;;;;21.23;16.63;;;4.60;99.90;;;;;;5054505;28;20613;-56
2020/12/09 09:39:52;;;;;;;22.60;16.63;;;4.60;99.90;;;;;;5055042;28;20195;-60
2020/12/09 09:42:18;;;;;;;26.27;19.53;;;4.60;99.90;;;;;;5054717;28;20178;-61
2020/12/09 09:44:45;;;;;;;23.93;18.03;;;4.50;99.90;;;;;;5055296;28;20214;-56
2020/12/09 09:47:11;;;;;;;22.47;17.20;;;4.60;99.90;;;;;;5055025;28;20194;-54
2020/12/09 09:49:37;;;;;;;22.87;16.67;;;4.60;99.90;;;;;;5054778;28;20542;-55
2020/12/09 09:52:02;;;;;;;26.03;19.20;;;4.70;99.90;;;;;;5055050;28;20255;-53
2020/12/09 09:54:28;;;;;;;21.70;16.57;;;4.70;99.90;;;;;;5054329;28;20516;-59
2020/12/09 09:56:54;;;;;;;40.10;29.50;;;4.70;99.90;;;;;;5054253;28;20206;-56
2020/12/09 09:59:19;;;;;;;25.17;19.27;;;4.60;99.90;;;;;;5054621;28;20195;-61
2020/12/09 10:01:45;;;;;;;24.13;17.57;;;4.50;99.90;;;;;;5055314;28;20195;-58
2020/12/09 10:04:10;;;;;;;24.17;18.40;;;4.40;99.90;;;;;;5055817;28;20179;-58
2020/12/09 10:06:36;;;;;;;27.57;20.37;;;4.30;99.90;;;;;;5054872;28;20195;-55
2020/12/09 10:09:05;;;;;;;23.13;17.77;;;4.20;99.90;;;;;;5054381;28;20233;-57
2020/12/09 10:11:30;;;;;;;22.77;17.77;;;4.20;99.90;;;;;;5054483;28;20282;-55
2020/12/09 10:13:57;;;;;;;23.43;17.60;;;4.10;99.90;;;;;;5054919;28;20198;-61
2020/12/09 10:16:26;;;;;;;22.67;18.20;;;4.20;99.90;;;;;;5054030;28;20252;-58
2020/12/09 10:18:51;;;;;;;26.57;18.87;;;4.10;99.90;;;;;;5053947;28;20807;-59
2020/12/09 10:21:28;;;;;;;29.10;21.37;;;4.10;99.90;;;;;;5054304;28;20213;-56
2020/12/09 10:23:54;;;;;;;23.53;18.33;;;4.10;99.90;;;;;;5055017;28;20680;-54
2020/12/09 10:26:27;;;;;;;21.30;17.27;;;4.20;99.90;;;;;;5053871;28;20171;-60
2020/12/09 10:28:52;;;;;;;26.20;19.47;;;4.30;99.90;;;;;;5054098;28;20265;-53
2020/12/09 10:31:19;;;;;;;24.07;18.07;;;4.40;99.90;;;;;;5054330;28;20218;-61
2020/12/09 10:33:44;;;;;;;24.37;18.57;;;4.40;99.90;;;;;;5053815;28;20175;-60
2020/12/09 10:36:10;;;;;;;24.20;18.27;;;4.40;99.90;;;;;;5053159;28;20189;-53
2020/12/09 10:38:35;;;;;;;30.30;20.93;;;4.30;99.90;;;;;;5054072;28;20195;-56
2020/12/09 10:41:01;;;;;;;26.43;20.00;;;4.30;99.90;;;;;;5053696;28;20258;-55
2020/12/09 10:43:27;;;;;;;23.00;18.00;;;4.30;99.90;;;;;;5054073;28;20182;-59
2020/12/09 10:45:53;;;;;;;26.67;20.10;;;4.30;99.90;;;;;;5053891;28;20207;-60
2020/12/09 10:48:18;;;;;;;26.13;20.27;;;4.40;99.90;;;;;;5053477;28;20284;-52
2020/12/09 10:50:44;;;;;;;23.40;17.53;;;4.20;99.90;;;;;;5053582;28;20205;-60
2020/12/09 10:53:10;;;;;;;23.13;17.73;;;4.10;99.90;;;;;;5054117;28;20183;-55
2020/12/09 10:55:37;;;;;;;26.20;18.43;;;4.10;99.90;;;;;;5054027;28;20172;-57
2020/12/09 10:58:03;;;;;;;22.23;17.40;;;4.20;99.90;;;;;;5053377;28;20218;-59
2020/12/09 11:00:28;;;;;;;23.20;18.03;;;4.20;99.90;;;;;;5054006;28;20566;-58
2020/12/09 11:02:54;;;;;;;22.70;17.47;;;4.40;99.90;;;;;;5053675;28;20265;-54
2020/12/09 11:05:19;;;;;;;24.90;19.30;;;4.50;99.90;;;;;;5053543;28;20651;-61
2020/12/09 11:07:45;;;;;;;21.93;17.40;;;4.70;99.90;;;;;;5053251;28;20214;-60
2020/12/09 11:10:11;;;;;;;23.27;18.20;;;4.70;99.90;;;;;;5055443;28;20210;-61
2020/12/09 11:12:36;;;;;;;21.50;16.70;;;4.60;99.90;;;;;;5056385;28;20248;-56
2020/12/09 11:15:03;;;;;;;22.50;17.57;;;4.70;99.90;;;;;;5057701;28;20183;-60
2020/12/09 11:17:29;;;;;;;21.87;16.70;;;4.60;99.90;;;;;;5057496;28;20198;-56
2020/12/09 11:19:54;;;;;;;24.90;19.27;;;4.60;99.90;;;;;;5057713;28;20203;-61
2020/12/09 11:22:20;;;;;;;23.50;17.47;;;4.70;99.90;;;;;;5057128;28;20195;-55
2020/12/09 11:24:45;;;;;;;20.30;15.77;;;4.70;99.90;;;;;;5057108;28;20174;-61
2020/12/09 11:27:11;;;;;;;22.10;16.97;;;4.70;99.90;;;;;;5056804;28;20280;-59
2020/12/09 11:29:38;;;;;;;20.03;16.23;;;4.80;99.90;;;;;;5058048;28;20175;-53
2020/12/09 11:32:03;;;;;;;20.60;16.27;;;4.70;99.90;;;;;;5057455;28;20210;-53
2020/12/09 11:34:29;;;;;;;21.20;16.43;;;4.80;99.90;;;;;;5056431;28;20226;-61
2020/12/09 11:36:59;;;;;;;21.80;17.23;;;4.80;99.90;;;;;;5057574;28;20202;-57
2020/12/09 11:39:26;;;;;;;22.90;17.30;;;4.80;99.90;;;;;;5057359;28;20245;-55
2020/12/09 11:41:52;;;;;;;23.07;17.90;;;4.90;99.90;;;;;;5058278;28;20183;-53
2020/12/09 11:44:17;;;;;;;28.43;20.87;;;4.80;99.90;;;;;;5056846;28;20512;-59
2020/12/09 11:46:43;;;;;;;26.97;20.83;;;4.90;99.90;;;;;;5058574;28;20191;-59
2020/12/09 11:49:08;;;;;;;27.87;21.37;;;4.90;99.90;;;;;;5057565;28;20183;-58
2020/12/09 11:51:34;;;;;;;22.50;18.10;;;5.00;99.90;;;;;;5056669;28;20237;-55
2020/12/09 11:53:59;;;;;;;22.03;18.20;;;4.90;99.90;;;;;;5057006;28;20654;-61
2020/12/09 11:56:27;;;;;;;26.07;20.13;;;4.90;99.90;;;;;;5058946;28;20270;-60
2020/12/09 11:58:52;;;;;;;25.70;19.50;;;5.00;99.90;;;;;;5056743;28;20697;-56
2020/12/09 12:01:19;;;;;;;24.77;19.43;;;5.00;99.90;;;;;;5056828;28;20179;-60
2020/12/09 12:03:47;;;;;;;23.50;17.90;;;5.00;99.90;;;;;;5058460;28;20642;-60
2020/12/09 12:06:27;;;;;;;23.40;18.23;;;5.00;99.90;;;;;;5038828;28;20232;-58
2020/12/09 12:08:54;;;;;;;21.70;17.43;;;5.00;99.90;;;;;;5057085;28;20189;-61
2020/12/09 12:11:21;;;;;;;26.17;19.67;;;5.00;99.90;;;;;;5056569;28;20195;-57
2020/12/09 12:13:47;;;;;;;25.90;18.63;;;4.90;99.90;;;;;;5055731;28;20297;-60
2020/12/09 12:16:15;;;;;;;34.43;26.23;;;4.90;99.90;;;;;;5056016;28;20211;-61
2020/12/09 12:18:41;;;;;;;28.43;20.83;;;4.80;99.90;;;;;;5056750;28;20230;-57
2020/12/09 12:21:07;;;;;;;23.77;18.43;;;4.90;99.90;;;;;;5055276;28;20214;-56
2020/12/09 12:23:32;;;;;;;23.63;18.77;;;5.00;99.90;;;;;;5057035;28;20658;-55
2020/12/09 12:25:58;;;;;;;25.53;19.57;;;4.90;99.90;;;;;;5055861;28;20210;-57
2020/12/09 12:28:25;;;;;;;25.10;19.10;;;4.90;99.90;;;;;;5056401;28;20219;-60
2020/12/09 12:30:51;;;;;;;27.43;21.10;;;4.80;99.90;;;;;;5056510;28;20179;-53
2020/12/09 12:33:17;;;;;;;27.10;22.60;;;4.80;99.90;;;;;;5055913;28;20186;-57
2020/12/09 12:35:42;;;;;;;23.73;18.40;;;4.80;99.90;;;;;;5054942;28;20185;-54
2020/12/09 12:38:08;;;;;;;24.77;19.37;;;4.80;99.90;;;;;;5055754;28;20273;-54
2020/12/09 12:40:33;;;;;;;24.67;18.30;;;5.90;99.90;;;;;;5057055;28;20219;-53
2020/12/09 12:42:59;;;;;;;25.63;18.90;;;4.90;99.90;;;;;;5055181;28;20234;-59